createdAt,value
2023-01-27T18:53:32.165Z,14.60
2023-01-27T18:56:02.208Z,16.17
2023-01-27T18:58:30.106Z,14.82
2023-01-27T19:00:59.667Z,13.35
2023-01-27T19:03:28.932Z,13.35
2023-01-27T19:05:57.047Z,12.90
2023-01-27T19:08:25.711Z,13.65
2023-01-27T19:10:53.799Z,15.48
2023-01-27T19:13:21.878Z,17.25
2023-01-27T19:15:54.350Z,17.55
2023-01-27T19:18:26.088Z,22.45
2023-01-27T19:20:54.338Z,16.02
2023-01-27T19:23:22.725Z,13.65
2023-01-27T19:25:52.171Z,15.73
2023-01-27T19:28:23.096Z,17.48
2023-01-27T19:30:50.858Z,21.73
2023-01-27T19:33:22.867Z,19.27
2023-01-27T19:36:09.106Z,16.38
2023-01-27T19:38:36.937Z,15.85
2023-01-27T19:41:04.710Z,16.40
2023-01-27T19:43:32.585Z,16.10
2023-01-27T19:46:00.514Z,18.88
2023-01-27T19:48:28.683Z,20.63
2023-01-27T19:50:56.502Z,16.73
2023-01-27T19:53:24.692Z,17.40
2023-01-27T19:55:54.332Z,26.58
2023-01-27T19:58:26.233Z,33.50
2023-01-27T20:00:54.757Z,20.50
2023-01-27T20:03:23.527Z,16.98
2023-01-27T20:05:51.400Z,15.25
2023-01-27T20:08:20.277Z,16.13
2023-01-27T20:10:48.150Z,16.35
2023-01-27T20:13:17.691Z,16.45
2023-01-27T20:15:45.930Z,18.30
2023-01-27T20:18:15.284Z,18.90
2023-01-27T20:20:44.320Z,17.67
2023-01-27T20:23:13.130Z,19.33
2023-01-27T20:25:40.953Z,17.25
2023-01-27T20:28:10.027Z,17.20
2023-01-27T20:30:38.841Z,18.65
2023-01-27T20:33:06.806Z,17.00
2023-01-27T20:35:34.600Z,17.33
2023-01-27T20:38:03.619Z,17.92
2023-01-27T20:40:32.443Z,16.85
2023-01-27T20:43:02.837Z,17.67
2023-01-27T20:45:32.493Z,18.15
2023-01-27T20:48:01.114Z,18.92
2023-01-27T20:50:29.212Z,18.42
2023-01-27T20:52:58.875Z,18.63
2023-01-27T20:55:26.900Z,17.00
2023-01-27T20:57:55.431Z,17.88
2023-01-27T21:00:24.781Z,15.98
2023-01-27T21:02:52.783Z,16.83
2023-01-27T21:05:20.607Z,16.98
2023-01-27T21:07:48.475Z,17.00
2023-01-27T21:10:18.707Z,17.90
2023-01-27T21:12:46.559Z,17.00
2023-01-27T21:15:14.908Z,17.67
2023-01-27T21:17:43.123Z,18.00
2023-01-27T21:20:14.440Z,18.58
2023-01-27T21:22:45.415Z,18.83
2023-01-27T21:25:13.584Z,17.20
2023-01-27T21:27:43.426Z,17.88
2023-01-27T21:30:12.903Z,18.02
2023-01-27T21:32:40.765Z,18.02
2023-01-27T21:35:08.717Z,17.27
2023-01-27T21:37:36.671Z,18.65
2023-01-27T21:40:05.365Z,18.50
2023-01-27T21:42:55.398Z,18.55
2023-01-27T21:45:24.192Z,18.55
2023-01-27T21:47:52.089Z,16.10
2023-01-27T21:50:20.013Z,16.70
2023-01-27T21:52:49.087Z,16.95
2023-01-27T21:55:25.273Z,16.48
2023-01-27T21:57:54.582Z,17.23
2023-01-27T22:00:24.563Z,16.30
2023-01-27T22:02:56.254Z,15.60
2023-01-27T22:05:24.383Z,21.92
2023-01-27T22:07:53.131Z,37.05
2023-01-27T22:10:22.420Z,17.45
2023-01-27T22:12:51.378Z,14.63
2023-01-27T22:15:23.665Z,15.60
2023-01-27T22:17:51.461Z,14.53
2023-01-27T22:20:19.456Z,20.48
2023-01-27T22:22:47.432Z,18.77
2023-01-27T22:25:16.482Z,14.00
2023-01-27T22:27:44.961Z,13.43
2023-01-27T22:30:17.089Z,12.55
2023-01-27T22:32:45.754Z,14.02
2023-01-27T22:35:15.016Z,13.05
2023-01-27T22:37:43.640Z,12.93
2023-01-27T22:40:12.430Z,12.80
2023-01-27T22:42:40.294Z,12.77
2023-01-27T22:45:11.561Z,12.40
2023-01-27T22:47:39.449Z,12.98
2023-01-27T22:50:07.536Z,12.38
2023-01-27T22:52:38.644Z,12.43
2023-01-27T22:55:07.384Z,12.27
2023-01-27T22:57:35.547Z,12.60
2023-01-27T23:00:03.590Z,12.05
2023-01-27T23:02:31.538Z,12.95
2023-01-27T23:04:59.857Z,12.38
2023-01-27T23:07:27.699Z,12.35
2023-01-27T23:09:55.691Z,12.18
2023-01-27T23:12:23.575Z,11.73
2023-01-27T23:14:51.463Z,12.25
2023-01-27T23:17:19.186Z,11.95
2023-01-27T23:19:47.172Z,11.82
2023-01-27T23:22:14.913Z,12.15
2023-01-27T23:24:42.977Z,12.50
2023-01-27T23:27:11.074Z,12.45
2023-01-27T23:29:38.864Z,12.00
2023-01-27T23:32:06.861Z,12.43
2023-01-27T23:34:34.747Z,11.80
2023-01-27T23:37:02.515Z,13.15
2023-01-27T23:39:30.317Z,12.35
2023-01-27T23:42:23.181Z,12.85
2023-01-27T23:44:50.996Z,12.10
2023-01-27T23:47:18.796Z,11.80
2023-01-27T23:49:46.868Z,11.73
2023-01-27T23:52:14.841Z,11.57
2023-01-27T23:54:42.785Z,11.75
2023-01-27T23:57:10.559Z,11.80
2023-01-27T23:59:38.459Z,11.07
